sensor_id;sensor_type;location;lat;lon;timestamp;P1;durP1;ratioP1;P2;durP2;ratioP2
29958;SDS011;16815;51.100;6.516;2023-02-15T00:01:42;32.23;;;20.30;;
29958;SDS011;16815;51.100;6.516;2023-02-15T00:04:08;27.63;;;18.90;;
29958;SDS011;16815;51.100;6.516;2023-02-15T00:06:34;29.17;;;20.23;;
29958;SDS011;16815;51.100;6.516;2023-02-15T00:09:01;28.83;;;19.47;;
29958;SDS011;16815;51.100;6.516;2023-02-15T00:11:27;31.33;;;20.63;;
29958;SDS011;16815;51.100;6.516;2023-02-15T00:14:08;30.23;;;19.87;;
29958;SDS011;16815;51.100;6.516;2023-02-15T00:16:35;31.67;;;20.50;;
29958;SDS011;16815;51.100;6.516;2023-02-15T00:19:01;32.77;;;21.50;;
29958;SDS011;16815;51.100;6.516;2023-02-15T00:21:28;31.33;;;20.97;;
29958;SDS011;16815;51.100;6.516;2023-02-15T00:23:54;39.47;;;21.43;;
29958;SDS011;16815;51.100;6.516;2023-02-15T00:26:20;32.80;;;20.73;;
29958;SDS011;16815;51.100;6.516;2023-02-15T00:28:46;29.33;;;20.70;;
29958;SDS011;16815;51.100;6.516;2023-02-15T00:31:12;32.73;;;21.13;;
29958;SDS011;16815;51.100;6.516;2023-02-15T00:33:39;33.13;;;21.87;;
29958;SDS011;16815;51.100;6.516;2023-02-15T00:36:06;31.60;;;21.03;;
29958;SDS011;16815;51.100;6.516;2023-02-15T00:38:32;29.00;;;19.43;;
29958;SDS011;16815;51.100;6.516;2023-02-15T00:40:58;32.10;;;20.80;;
29958;SDS011;16815;51.100;6.516;2023-02-15T00:43:25;32.33;;;21.97;;
29958;SDS011;16815;51.100;6.516;2023-02-15T00:45:51;29.83;;;19.83;;
29958;SDS011;16815;51.100;6.516;2023-02-15T00:48:17;30.23;;;21.00;;
29958;SDS011;16815;51.100;6.516;2023-02-15T00:50:48;33.27;;;20.47;;
29958;SDS011;16815;51.100;6.516;2023-02-15T00:53:15;30.87;;;19.87;;
29958;SDS011;16815;51.100;6.516;2023-02-15T00:55:41;32.17;;;21.43;;
29958;SDS011;16815;51.100;6.516;2023-02-15T00:58:07;31.93;;;20.57;;
29958;SDS011;16815;51.100;6.516;2023-02-15T01:00:34;31.47;;;21.07;;
29958;SDS011;16815;51.100;6.516;2023-02-15T01:03:00;32.53;;;21.50;;
29958;SDS011;16815;51.100;6.516;2023-02-15T01:05:25;30.13;;;20.73;;
29958;SDS011;16815;51.100;6.516;2023-02-15T01:07:51;31.77;;;21.17;;
29958;SDS011;16815;51.100;6.516;2023-02-15T01:10:17;24.77;;;18.37;;
29958;SDS011;16815;51.100;6.516;2023-02-15T01:12:43;30.63;;;20.97;;
29958;SDS011;16815;51.100;6.516;2023-02-15T01:15:09;28.60;;;19.33;;
29958;SDS011;16815;51.100;6.516;2023-02-15T01:17:35;29.97;;;19.50;;
29958;SDS011;16815;51.100;6.516;2023-02-15T01:20:01;30.47;;;21.43;;
29958;SDS011;16815;51.100;6.516;2023-02-15T01:22:28;31.37;;;20.17;;
29958;SDS011;16815;51.100;6.516;2023-02-15T01:24:54;32.00;;;19.90;;
29958;SDS011;16815;51.100;6.516;2023-02-15T01:27:19;29.97;;;19.27;;
29958;SDS011;16815;51.100;6.516;2023-02-15T01:29:45;25.93;;;18.23;;
29958;SDS011;16815;51.100;6.516;2023-02-15T01:32:12;25.70;;;17.83;;
29958;SDS011;16815;51.100;6.516;2023-02-15T01:34:38;31.80;;;18.80;;
29958;SDS011;16815;51.100;6.516;2023-02-15T01:37:04;29.00;;;19.40;;
29958;SDS011;16815;51.100;6.516;2023-02-15T01:39:30;30.00;;;19.23;;
29958;SDS011;16815;51.100;6.516;2023-02-15T01:41:56;30.07;;;20.53;;
29958;SDS011;16815;51.100;6.516;2023-02-15T01:44:45;29.87;;;20.17;;
29958;SDS011;16815;51.100;6.516;2023-02-15T01:47:13;31.47;;;19.47;;
29958;SDS011;16815;51.100;6.516;2023-02-15T01:49:40;33.37;;;20.27;;
29958;SDS011;16815;51.100;6.516;2023-02-15T01:52:07;30.07;;;19.80;;
29958;SDS011;16815;51.100;6.516;2023-02-15T01:54:34;31.40;;;20.17;;
29958;SDS011;16815;51.100;6.516;2023-02-15T01:57:07;29.13;;;19.07;;
29958;SDS011;16815;51.100;6.516;2023-02-15T01:59:35;30.43;;;19.83;;
29958;SDS011;16815;51.100;6.516;2023-02-15T02:02:02;30.43;;;20.03;;
29958;SDS011;16815;51.100;6.516;2023-02-15T02:04:35;28.93;;;18.43;;
29958;SDS011;16815;51.100;6.516;2023-02-15T02:07:04;29.77;;;19.33;;
29958;SDS011;16815;51.100;6.516;2023-02-15T02:09:31;27.47;;;18.33;;
29958;SDS011;16815;51.100;6.516;2023-02-15T02:11:57;31.57;;;19.97;;
29958;SDS011;16815;51.100;6.516;2023-02-15T02:14:23;29.70;;;20.07;;
29958;SDS011;16815;51.100;6.516;2023-02-15T02:22:06;28.23;;;19.53;;
29958;SDS011;16815;51.100;6.516;2023-02-15T02:27:11;32.37;;;20.10;;
29958;SDS011;16815;51.100;6.516;2023-02-15T02:29:48;30.93;;;19.93;;
29958;SDS011;16815;51.100;6.516;2023-02-15T02:44:51;33.10;;;22.17;;
29958;SDS011;16815;51.100;6.516;2023-02-15T02:49:45;32.17;;;20.70;;
29958;SDS011;16815;51.100;6.516;2023-02-15T02:54:55;32.23;;;20.70;;
29958;SDS011;16815;51.100;6.516;2023-02-15T02:57:21;30.97;;;20.17;;
29958;SDS011;16815;51.100;6.516;2023-02-15T02:59:48;29.17;;;19.77;;
29958;SDS011;16815;51.100;6.516;2023-02-15T03:02:17;30.03;;;20.83;;
29958;SDS011;16815;51.100;6.516;2023-02-15T03:04:45;29.60;;;19.93;;
29958;SDS011;16815;51.100;6.516;2023-02-15T03:07:17;34.37;;;22.03;;
29958;SDS011;16815;51.100;6.516;2023-02-15T03:09:47;35.40;;;23.07;;
29958;SDS011;16815;51.100;6.516;2023-02-15T03:12:16;33.20;;;21.63;;
29958;SDS011;16815;51.100;6.516;2023-02-15T03:14:44;32.97;;;21.73;;
29958;SDS011;16815;51.100;6.516;2023-02-15T03:17:11;37.27;;;23.70;;
29958;SDS011;16815;51.100;6.516;2023-02-15T03:19:37;33.80;;;22.73;;
29958;SDS011;16815;51.100;6.516;2023-02-15T03:22:05;36.70;;;23.13;;
29958;SDS011;16815;51.100;6.516;2023-02-15T03:24:37;33.57;;;21.73;;
29958;SDS011;16815;51.100;6.516;2023-02-15T03:27:04;35.37;;;23.50;;
29958;SDS011;16815;51.100;6.516;2023-02-15T03:29:31;36.97;;;23.37;;
29958;SDS011;16815;51.100;6.516;2023-02-15T03:31:59;41.23;;;23.93;;
29958;SDS011;16815;51.100;6.516;2023-02-15T03:34:26;37.57;;;22.30;;
29958;SDS011;16815;51.100;6.516;2023-02-15T03:36:58;36.50;;;23.33;;
29958;SDS011;16815;51.100;6.516;2023-02-15T03:42:04;39.90;;;23.60;;
29958;SDS011;16815;51.100;6.516;2023-02-15T03:44:33;36.33;;;23.43;;
29958;SDS011;16815;51.100;6.516;2023-02-15T03:47:06;34.00;;;22.93;;
29958;SDS011;16815;51.100;6.516;2023-02-15T03:49:42;38.47;;;23.93;;
29958;SDS011;16815;51.100;6.516;2023-02-15T03:52:10;38.87;;;24.50;;
29958;SDS011;16815;51.100;6.516;2023-02-15T03:54:37;38.83;;;24.13;;
29958;SDS011;16815;51.100;6.516;2023-02-15T03:57:30;37.93;;;22.80;;
29958;SDS011;16815;51.100;6.516;2023-02-15T04:00:16;36.27;;;23.00;;
29958;SDS011;16815;51.100;6.516;2023-02-15T04:05:46;35.70;;;23.23;;
29958;SDS011;16815;51.100;6.516;2023-02-15T04:08:12;36.50;;;22.77;;
29958;SDS011;16815;51.100;6.516;2023-02-15T04:10:38;38.73;;;22.40;;
29958;SDS011;16815;51.100;6.516;2023-02-15T04:13:30;36.87;;;24.27;;
29958;SDS011;16815;51.100;6.516;2023-02-15T04:15:57;36.17;;;22.97;;
29958;SDS011;16815;51.100;6.516;2023-02-15T04:18:32;36.80;;;23.53;;
29958;SDS011;16815;51.100;6.516;2023-02-15T04:21:17;39.00;;;24.03;;
29958;SDS011;16815;51.100;6.516;2023-02-15T04:24:02;35.87;;;23.90;;
29958;SDS011;16815;51.100;6.516;2023-02-15T04:26:46;37.60;;;22.50;;
29958;SDS011;16815;51.100;6.516;2023-02-15T04:29:13;38.23;;;24.20;;
29958;SDS011;16815;51.100;6.516;2023-02-15T04:31:39;40.30;;;23.03;;
29958;SDS011;16815;51.100;6.516;2023-02-15T04:34:05;38.80;;;23.77;;
29958;SDS011;16815;51.100;6.516;2023-02-15T04:36:31;39.77;;;24.23;;
29958;SDS011;16815;51.100;6.516;2023-02-15T04:38:57;34.83;;;22.30;;
29958;SDS011;16815;51.100;6.516;2023-02-15T04:41:23;37.87;;;23.87;;
29958;SDS011;16815;51.100;6.516;2023-02-15T04:43:49;31.60;;;20.70;;
29958;SDS011;16815;51.100;6.516;2023-02-15T04:46:15;38.23;;;23.00;;
29958;SDS011;16815;51.100;6.516;2023-02-15T04:48:41;36.17;;;22.40;;
29958;SDS011;16815;51.100;6.516;2023-02-15T04:51:07;37.03;;;24.07;;
29958;SDS011;16815;51.100;6.516;2023-02-15T04:53:34;40.60;;;24.13;;
29958;SDS011;16815;51.100;6.516;2023-02-15T04:56:00;34.40;;;22.83;;
29958;SDS011;16815;51.100;6.516;2023-02-15T04:58:26;40.17;;;23.63;;
29958;SDS011;16815;51.100;6.516;2023-02-15T05:00:55;34.87;;;22.23;;
29958;SDS011;16815;51.100;6.516;2023-02-15T05:03:21;39.27;;;24.63;;
29958;SDS011;16815;51.100;6.516;2023-02-15T05:05:47;38.30;;;24.33;;
29958;SDS011;16815;51.100;6.516;2023-02-15T05:08:13;36.30;;;22.70;;
29958;SDS011;16815;51.100;6.516;2023-02-15T05:10:39;35.63;;;22.90;;
29958;SDS011;16815;51.100;6.516;2023-02-15T05:13:05;37.23;;;23.10;;
29958;SDS011;16815;51.100;6.516;2023-02-15T05:15:31;36.30;;;22.90;;
29958;SDS011;16815;51.100;6.516;2023-02-15T05:17:57;37.20;;;23.10;;
29958;SDS011;16815;51.100;6.516;2023-02-15T05:20:23;36.03;;;23.30;;
29958;SDS011;16815;51.100;6.516;2023-02-15T05:22:48;34.43;;;21.73;;
29958;SDS011;16815;51.100;6.516;2023-02-15T05:25:18;35.70;;;22.10;;
29958;SDS011;16815;51.100;6.516;2023-02-15T05:28:03;35.63;;;22.43;;
29958;SDS011;16815;51.100;6.516;2023-02-15T05:30:44;37.33;;;22.13;;
29958;SDS011;16815;51.100;6.516;2023-02-15T05:33:10;37.53;;;23.57;;
29958;SDS011;16815;51.100;6.516;2023-02-15T05:35:36;36.43;;;22.53;;
29958;SDS011;16815;51.100;6.516;2023-02-15T05:38:02;35.70;;;22.93;;
29958;SDS011;16815;51.100;6.516;2023-02-15T05:40:28;37.67;;;23.87;;
29958;SDS011;16815;51.100;6.516;2023-02-15T05:42:54;36.10;;;22.83;;
29958;SDS011;16815;51.100;6.516;2023-02-15T05:45:21;39.23;;;24.13;;
29958;SDS011;16815;51.100;6.516;2023-02-15T05:47:47;39.63;;;24.33;;
29958;SDS011;16815;51.100;6.516;2023-02-15T05:50:13;35.60;;;22.37;;
29958;SDS011;16815;51.100;6.516;2023-02-15T05:52:39;42.80;;;24.60;;
29958;SDS011;16815;51.100;6.516;2023-02-15T05:55:05;38.10;;;22.90;;
29958;SDS011;16815;51.100;6.516;2023-02-15T05:57:31;37.57;;;23.27;;
29958;SDS011;16815;51.100;6.516;2023-02-15T05:59:57;37.20;;;22.33;;
29958;SDS011;16815;51.100;6.516;2023-02-15T06:02:23;34.97;;;22.23;;
29958;SDS011;16815;51.100;6.516;2023-02-15T06:04:49;36.33;;;22.63;;
29958;SDS011;16815;51.100;6.516;2023-02-15T06:07:15;39.37;;;24.07;;
29958;SDS011;16815;51.100;6.516;2023-02-15T06:09:41;37.37;;;22.67;;
29958;SDS011;16815;51.100;6.516;2023-02-15T06:12:07;35.57;;;21.20;;
29958;SDS011;16815;51.100;6.516;2023-02-15T06:14:33;37.37;;;22.93;;
29958;SDS011;16815;51.100;6.516;2023-02-15T06:16:59;35.87;;;23.03;;
29958;SDS011;16815;51.100;6.516;2023-02-15T06:19:25;36.27;;;23.00;;
29958;SDS011;16815;51.100;6.516;2023-02-15T06:21:51;36.47;;;21.83;;
29958;SDS011;16815;51.100;6.516;2023-02-15T06:24:17;36.93;;;23.27;;
29958;SDS011;16815;51.100;6.516;2023-02-15T06:26:43;36.43;;;22.87;;
29958;SDS011;16815;51.100;6.516;2023-02-15T06:29:09;36.57;;;22.80;;
29958;SDS011;16815;51.100;6.516;2023-02-15T06:31:34;34.17;;;21.53;;
29958;SDS011;16815;51.100;6.516;2023-02-15T06:34:00;39.13;;;23.43;;
29958;SDS011;16815;51.100;6.516;2023-02-15T06:36:27;37.30;;;24.30;;
29958;SDS011;16815;51.100;6.516;2023-02-15T06:38:53;37.17;;;22.90;;
29958;SDS011;16815;51.100;6.516;2023-02-15T06:41:19;39.33;;;24.33;;
29958;SDS011;16815;51.100;6.516;2023-02-15T06:43:45;39.83;;;23.53;;
29958;SDS011;16815;51.100;6.516;2023-02-15T06:46:11;34.70;;;21.93;;
29958;SDS011;16815;51.100;6.516;2023-02-15T06:48:37;37.37;;;23.10;;
29958;SDS011;16815;51.100;6.516;2023-02-15T06:51:03;39.90;;;25.13;;
29958;SDS011;16815;51.100;6.516;2023-02-15T06:53:29;39.20;;;23.80;;
29958;SDS011;16815;51.100;6.516;2023-02-15T06:56:01;37.57;;;22.30;;
29958;SDS011;16815;51.100;6.516;2023-02-15T06:58:28;33.17;;;21.83;;
29958;SDS011;16815;51.100;6.516;2023-02-15T07:00:54;41.50;;;22.77;;
29958;SDS011;16815;51.100;6.516;2023-02-15T07:03:20;36.20;;;21.63;;
29958;SDS011;16815;51.100;6.516;2023-02-15T07:05:46;37.93;;;22.13;;
29958;SDS011;16815;51.100;6.516;2023-02-15T07:08:13;36.50;;;22.03;;
29958;SDS011;16815;51.100;6.516;2023-02-15T07:10:43;38.17;;;22.30;;
29958;SDS011;16815;51.100;6.516;2023-02-15T07:13:09;40.67;;;24.73;;
29958;SDS011;16815;51.100;6.516;2023-02-15T07:15:35;39.30;;;22.80;;
29958;SDS011;16815;51.100;6.516;2023-02-15T07:18:01;36.57;;;23.03;;
29958;SDS011;16815;51.100;6.516;2023-02-15T07:20:26;40.43;;;23.70;;
29958;SDS011;16815;51.100;6.516;2023-02-15T07:22:53;34.20;;;22.10;;
29958;SDS011;16815;51.100;6.516;2023-02-15T07:25:19;37.40;;;22.57;;
29958;SDS011;16815;51.100;6.516;2023-02-15T07:27:45;37.97;;;23.50;;
29958;SDS011;16815;51.100;6.516;2023-02-15T07:30:13;34.90;;;22.13;;
29958;SDS011;16815;51.100;6.516;2023-02-15T07:32:39;34.93;;;22.13;;
29958;SDS011;16815;51.100;6.516;2023-02-15T07:35:25;37.23;;;23.20;;
29958;SDS011;16815;51.100;6.516;2023-02-15T07:37:51;39.03;;;23.03;;
29958;SDS011;16815;51.100;6.516;2023-02-15T07:40:18;35.80;;;23.93;;
29958;SDS011;16815;51.100;6.516;2023-02-15T07:42:44;35.63;;;22.83;;
29958;SDS011;16815;51.100;6.516;2023-02-15T07:45:10;40.77;;;25.10;;
29958;SDS011;16815;51.100;6.516;2023-02-15T07:47:36;36.33;;;24.43;;
29958;SDS011;16815;51.100;6.516;2023-02-15T07:50:02;36.47;;;24.27;;
29958;SDS011;16815;51.100;6.516;2023-02-15T07:52:27;35.13;;;23.17;;
29958;SDS011;16815;51.100;6.516;2023-02-15T07:54:53;38.80;;;24.90;;
29958;SDS011;16815;51.100;6.516;2023-02-15T07:57:19;37.70;;;24.07;;
29958;SDS011;16815;51.100;6.516;2023-02-15T07:59:45;38.23;;;24.60;;
29958;SDS011;16815;51.100;6.516;2023-02-15T08:02:14;37.53;;;22.90;;
29958;SDS011;16815;51.100;6.516;2023-02-15T08:04:40;36.73;;;22.97;;
29958;SDS011;16815;51.100;6.516;2023-02-15T08:07:06;32.80;;;22.23;;
29958;SDS011;16815;51.100;6.516;2023-02-15T08:09:32;34.30;;;23.93;;
29958;SDS011;16815;51.100;6.516;2023-02-15T08:11:58;39.17;;;24.73;;
29958;SDS011;16815;51.100;6.516;2023-02-15T08:14:24;35.50;;;22.57;;
29958;SDS011;16815;51.100;6.516;2023-02-15T08:16:51;36.93;;;23.17;;
29958;SDS011;16815;51.100;6.516;2023-02-15T08:21:44;36.03;;;23.10;;
29958;SDS011;16815;51.100;6.516;2023-02-15T08:24:11;35.37;;;23.77;;
29958;SDS011;16815;51.100;6.516;2023-02-15T08:26:37;35.80;;;23.17;;
29958;SDS011;16815;51.100;6.516;2023-02-15T08:29:04;34.57;;;22.00;;
29958;SDS011;16815;51.100;6.516;2023-02-15T08:31:30;34.23;;;22.10;;
29958;SDS011;16815;51.100;6.516;2023-02-15T08:33:56;33.50;;;21.13;;
29958;SDS011;16815;51.100;6.516;2023-02-15T08:36:23;33.40;;;21.77;;
29958;SDS011;16815;51.100;6.516;2023-02-15T08:38:49;32.87;;;21.83;;
29958;SDS011;16815;51.100;6.516;2023-02-15T08:41:19;35.00;;;22.17;;
29958;SDS011;16815;51.100;6.516;2023-02-15T08:43:46;34.80;;;21.73;;
29958;SDS011;16815;51.100;6.516;2023-02-15T08:46:13;30.77;;;21.47;;
29958;SDS011;16815;51.100;6.516;2023-02-15T08:48:39;33.57;;;21.57;;
29958;SDS011;16815;51.100;6.516;2023-02-15T08:51:07;31.40;;;21.63;;
29958;SDS011;16815;51.100;6.516;2023-02-15T08:53:35;29.93;;;20.37;;
29958;SDS011;16815;51.100;6.516;2023-02-15T08:56:01;30.63;;;20.00;;
29958;SDS011;16815;51.100;6.516;2023-02-15T08:58:27;29.87;;;20.90;;
29958;SDS011;16815;51.100;6.516;2023-02-15T09:00:53;29.80;;;19.73;;
29958;SDS011;16815;51.100;6.516;2023-02-15T09:03:19;31.47;;;21.23;;
29958;SDS011;16815;51.100;6.516;2023-02-15T09:05:45;28.77;;;21.47;;
29958;SDS011;16815;51.100;6.516;2023-02-15T09:08:11;30.50;;;20.43;;
29958;SDS011;16815;51.100;6.516;2023-02-15T09:10:37;27.33;;;20.30;;
29958;SDS011;16815;51.100;6.516;2023-02-15T09:13:03;30.67;;;21.33;;
29958;SDS011;16815;51.100;6.516;2023-02-15T09:15:29;30.63;;;19.87;;
29958;SDS011;16815;51.100;6.516;2023-02-15T09:17:58;29.47;;;20.00;;
29958;SDS011;16815;51.100;6.516;2023-02-15T09:20:27;31.00;;;21.07;;
29958;SDS011;16815;51.100;6.516;2023-02-15T09:22:53;32.07;;;21.53;;
29958;SDS011;16815;51.100;6.516;2023-02-15T09:25:19;31.50;;;21.07;;
29958;SDS011;16815;51.100;6.516;2023-02-15T09:27:45;89.83;;;24.80;;
29958;SDS011;16815;51.100;6.516;2023-02-15T09:30:12;32.10;;;20.87;;
29958;SDS011;16815;51.100;6.516;2023-02-15T09:32:38;27.53;;;19.63;;
29958;SDS011;16815;51.100;6.516;2023-02-15T09:35:04;31.30;;;19.80;;
29958;SDS011;16815;51.100;6.516;2023-02-15T09:37:30;27.57;;;18.37;;
29958;SDS011;16815;51.100;6.516;2023-02-15T09:39:56;28.17;;;19.07;;
29958;SDS011;16815;51.100;6.516;2023-02-15T09:45:09;27.93;;;19.07;;
29958;SDS011;16815;51.100;6.516;2023-02-15T09:50:30;28.37;;;19.60;;
29958;SDS011;16815;51.100;6.516;2023-02-15T09:53:06;25.27;;;17.83;;
29958;SDS011;16815;51.100;6.516;2023-02-15T09:58:32;25.97;;;18.53;;
29958;SDS011;16815;51.100;6.516;2023-02-15T10:06:37;25.03;;;18.57;;
29958;SDS011;16815;51.100;6.516;2023-02-15T10:11:52;30.13;;;17.50;;
29958;SDS011;16815;51.100;6.516;2023-02-15T10:21:47;24.90;;;18.10;;
29958;SDS011;16815;51.100;6.516;2023-02-15T10:26:46;22.50;;;17.60;;
29958;SDS011;16815;51.100;6.516;2023-02-15T10:31:56;25.90;;;18.10;;
29958;SDS011;16815;51.100;6.516;2023-02-15T10:34:43;26.97;;;17.23;;
29958;SDS011;16815;51.100;6.516;2023-02-15T11:00:41;25.20;;;18.73;;
29958;SDS011;16815;51.100;6.516;2023-02-15T11:06:13;25.70;;;17.77;;
29958;SDS011;16815;51.100;6.516;2023-02-15T11:08:40;23.47;;;16.63;;
29958;SDS011;16815;51.100;6.516;2023-02-15T11:11:09;23.00;;;17.83;;
29958;SDS011;16815;51.100;6.516;2023-02-15T11:13:41;24.03;;;17.10;;
29958;SDS011;16815;51.100;6.516;2023-02-15T11:16:14;22.00;;;16.57;;
29958;SDS011;16815;51.100;6.516;2023-02-15T11:18:43;25.23;;;16.83;;
29958;SDS011;16815;51.100;6.516;2023-02-15T11:23:44;25.03;;;17.17;;
29958;SDS011;16815;51.100;6.516;2023-02-15T11:26:13;23.50;;;16.50;;
29958;SDS011;16815;51.100;6.516;2023-02-15T11:28:45;24.07;;;16.93;;
29958;SDS011;16815;51.100;6.516;2023-02-15T11:31:15;22.57;;;16.57;;
29958;SDS011;16815;51.100;6.516;2023-02-15T11:33:43;22.47;;;16.97;;
29958;SDS011;16815;51.100;6.516;2023-02-15T11:36:14;24.40;;;17.03;;
29958;SDS011;16815;51.100;6.516;2023-02-15T11:38:42;22.00;;;17.00;;
29958;SDS011;16815;51.100;6.516;2023-02-15T11:41:09;22.27;;;16.50;;
29958;SDS011;16815;51.100;6.516;2023-02-15T11:43:37;22.77;;;16.20;;
29958;SDS011;16815;51.100;6.516;2023-02-15T11:46:05;21.63;;;15.27;;
29958;SDS011;16815;51.100;6.516;2023-02-15T11:48:31;22.37;;;15.77;;
29958;SDS011;16815;51.100;6.516;2023-02-15T11:50:57;21.40;;;16.03;;
29958;SDS011;16815;51.100;6.516;2023-02-15T11:53:24;19.77;;;15.73;;
29958;SDS011;16815;51.100;6.516;2023-02-15T11:55:52;21.40;;;15.93;;
29958;SDS011;16815;51.100;6.516;2023-02-15T12:00:48;21.07;;;14.90;;
29958;SDS011;16815;51.100;6.516;2023-02-15T12:03:27;21.93;;;16.13;;
29958;SDS011;16815;51.100;6.516;2023-02-15T12:05:56;21.37;;;14.83;;
29958;SDS011;16815;51.100;6.516;2023-02-15T12:08:23;18.50;;;14.40;;
29958;SDS011;16815;51.100;6.516;2023-02-15T12:13:17;21.73;;;15.10;;
29958;SDS011;16815;51.100;6.516;2023-02-15T12:15:47;23.40;;;14.30;;
29958;SDS011;16815;51.100;6.516;2023-02-15T12:20:59;19.23;;;14.33;;
29958;SDS011;16815;51.100;6.516;2023-02-15T12:23:27;21.07;;;13.93;;
29958;SDS011;16815;51.100;6.516;2023-02-15T12:25:54;20.77;;;14.77;;
29958;SDS011;16815;51.100;6.516;2023-02-15T12:30:57;20.27;;;14.33;;
29958;SDS011;16815;51.100;6.516;2023-02-15T12:35:54;19.43;;;13.80;;
29958;SDS011;16815;51.100;6.516;2023-02-15T12:38:23;19.27;;;13.83;;
29958;SDS011;16815;51.100;6.516;2023-02-15T12:41:24;19.47;;;13.97;;
29958;SDS011;16815;51.100;6.516;2023-02-15T12:43:42;21.17;;;13.93;;
29958;SDS011;16815;51.100;6.516;2023-02-15T12:48:46;18.47;;;14.00;;
29958;SDS011;16815;51.100;6.516;2023-02-15T12:51:14;18.00;;;13.97;;
29958;SDS011;16815;51.100;6.516;2023-02-15T12:53:40;19.50;;;13.97;;
29958;SDS011;16815;51.100;6.516;2023-02-15T12:56:07;19.83;;;14.27;;
29958;SDS011;16815;51.100;6.516;2023-02-15T12:58:35;19.57;;;14.53;;
29958;SDS011;16815;51.100;6.516;2023-02-15T13:03:27;17.43;;;12.70;;
29958;SDS011;16815;51.100;6.516;2023-02-15T13:05:54;17.60;;;13.07;;
29958;SDS011;16815;51.100;6.516;2023-02-15T13:08:27;24.43;;;14.47;;
29958;SDS011;16815;51.100;6.516;2023-02-15T13:11:06;15.77;;;12.87;;
29958;SDS011;16815;51.100;6.516;2023-02-15T13:13:50;18.17;;;13.23;;
29958;SDS011;16815;51.100;6.516;2023-02-15T13:16:17;17.30;;;13.63;;
29958;SDS011;16815;51.100;6.516;2023-02-15T13:18:45;19.10;;;13.17;;
29958;SDS011;16815;51.100;6.516;2023-02-15T13:21:13;20.07;;;12.67;;
29958;SDS011;16815;51.100;6.516;2023-02-15T13:23:42;18.07;;;13.30;;
29958;SDS011;16815;51.100;6.516;2023-02-15T13:26:11;21.57;;;13.50;;
29958;SDS011;16815;51.100;6.516;2023-02-15T13:28:40;15.30;;;12.23;;
29958;SDS011;16815;51.100;6.516;2023-02-15T13:31:11;16.77;;;12.17;;
29958;SDS011;16815;51.100;6.516;2023-02-15T13:33:38;16.10;;;12.60;;
29958;SDS011;16815;51.100;6.516;2023-02-15T13:36:08;18.63;;;13.33;;
29958;SDS011;16815;51.100;6.516;2023-02-15T13:38:46;15.83;;;12.10;;
29958;SDS011;16815;51.100;6.516;2023-02-15T13:41:16;16.07;;;13.47;;
29958;SDS011;16815;51.100;6.516;2023-02-15T13:43:56;16.23;;;12.90;;
29958;SDS011;16815;51.100;6.516;2023-02-15T13:46:35;17.73;;;13.43;;
29958;SDS011;16815;51.100;6.516;2023-02-15T13:54:42;22.13;;;12.47;;
29958;SDS011;16815;51.100;6.516;2023-02-15T14:02:37;14.53;;;12.13;;
29958;SDS011;16815;51.100;6.516;2023-02-15T14:05:14;23.13;;;13.20;;
29958;SDS011;16815;51.100;6.516;2023-02-15T14:07:49;18.80;;;12.47;;
29958;SDS011;16815;51.100;6.516;2023-02-15T14:15:21;18.47;;;13.70;;
29958;SDS011;16815;51.100;6.516;2023-02-15T14:18:07;21.20;;;12.93;;
29958;SDS011;16815;51.100;6.516;2023-02-15T14:23:35;16.97;;;13.27;;
29958;SDS011;16815;51.100;6.516;2023-02-15T14:31:13;18.93;;;12.43;;
29958;SDS011;16815;51.100;6.516;2023-02-15T14:33:41;15.50;;;12.77;;
29958;SDS011;16815;51.100;6.516;2023-02-15T14:36:10;17.97;;;12.20;;
29958;SDS011;16815;51.100;6.516;2023-02-15T14:38:59;20.10;;;12.33;;
29958;SDS011;16815;51.100;6.516;2023-02-15T14:41:29;18.87;;;12.33;;
29958;SDS011;16815;51.100;6.516;2023-02-15T14:44:12;16.87;;;12.50;;
29958;SDS011;16815;51.100;6.516;2023-02-15T14:49:17;15.47;;;12.00;;
29958;SDS011;16815;51.100;6.516;2023-02-15T14:56:43;17.53;;;12.17;;
29958;SDS011;16815;51.100;6.516;2023-02-15T14:59:16;15.57;;;12.40;;
29958;SDS011;16815;51.100;6.516;2023-02-15T15:01:51;15.60;;;11.60;;
29958;SDS011;16815;51.100;6.516;2023-02-15T15:04:22;18.57;;;12.57;;
29958;SDS011;16815;51.100;6.516;2023-02-15T15:06:57;16.00;;;11.97;;
29958;SDS011;16815;51.100;6.516;2023-02-15T15:09:25;17.80;;;12.03;;
29958;SDS011;16815;51.100;6.516;2023-02-15T15:11:53;16.90;;;12.13;;
29958;SDS011;16815;51.100;6.516;2023-02-15T15:16:58;19.40;;;12.30;;
29958;SDS011;16815;51.100;6.516;2023-02-15T15:22:21;15.10;;;12.37;;
29958;SDS011;16815;51.100;6.516;2023-02-15T15:25:09;16.93;;;11.53;;
29958;SDS011;16815;51.100;6.516;2023-02-15T15:27:45;20.60;;;13.00;;
29958;SDS011;16815;51.100;6.516;2023-02-15T15:35:27;20.23;;;12.83;;
29958;SDS011;16815;51.100;6.516;2023-02-15T15:38:07;16.60;;;12.63;;
29958;SDS011;16815;51.100;6.516;2023-02-15T15:40:47;16.17;;;12.87;;
29958;SDS011;16815;51.100;6.516;2023-02-15T15:43:30;16.73;;;12.67;;
29958;SDS011;16815;51.100;6.516;2023-02-15T15:48:31;22.00;;;13.20;;
29958;SDS011;16815;51.100;6.516;2023-02-15T15:51:05;20.13;;;12.90;;
29958;SDS011;16815;51.100;6.516;2023-02-15T15:53:44;17.10;;;12.70;;
29958;SDS011;16815;51.100;6.516;2023-02-15T15:56:14;22.93;;;15.97;;
29958;SDS011;16815;51.100;6.516;2023-02-15T15:58:46;60.00;;;40.20;;
29958;SDS011;16815;51.100;6.516;2023-02-15T16:01:14;55.53;;;35.97;;
29958;SDS011;16815;51.100;6.516;2023-02-15T16:03:51;56.40;;;39.23;;
29958;SDS011;16815;51.100;6.516;2023-02-15T16:06:31;72.47;;;46.97;;
29958;SDS011;16815;51.100;6.516;2023-02-15T16:08:57;59.70;;;40.47;;
29958;SDS011;16815;51.100;6.516;2023-02-15T16:11:27;31.47;;;22.33;;
29958;SDS011;16815;51.100;6.516;2023-02-15T16:13:54;26.83;;;18.00;;
29958;SDS011;16815;51.100;6.516;2023-02-15T16:16:21;25.00;;;16.50;;
29958;SDS011;16815;51.100;6.516;2023-02-15T16:18:48;21.83;;;13.77;;
29958;SDS011;16815;51.100;6.516;2023-02-15T16:21:18;18.77;;;13.87;;
29958;SDS011;16815;51.100;6.516;2023-02-15T16:23:49;25.07;;;12.90;;
29958;SDS011;16815;51.100;6.516;2023-02-15T16:28:54;23.50;;;14.47;;
29958;SDS011;16815;51.100;6.516;2023-02-15T16:31:21;21.17;;;15.63;;
29958;SDS011;16815;51.100;6.516;2023-02-15T16:33:47;25.20;;;16.07;;
29958;SDS011;16815;51.100;6.516;2023-02-15T16:36:21;28.33;;;15.33;;
29958;SDS011;16815;51.100;6.516;2023-02-15T16:41:13;28.83;;;16.40;;
29958;SDS011;16815;51.100;6.516;2023-02-15T16:43:42;32.23;;;17.77;;
29958;SDS011;16815;51.100;6.516;2023-02-15T16:46:16;23.73;;;14.80;;
29958;SDS011;16815;51.100;6.516;2023-02-15T16:48:44;31.00;;;17.13;;
29958;SDS011;16815;51.100;6.516;2023-02-15T16:51:18;27.77;;;16.90;;
29958;SDS011;16815;51.100;6.516;2023-02-15T16:53:46;24.10;;;16.53;;
29958;SDS011;16815;51.100;6.516;2023-02-15T16:56:12;37.03;;;17.50;;
29958;SDS011;16815;51.100;6.516;2023-02-15T16:58:41;38.97;;;18.53;;
29958;SDS011;16815;51.100;6.516;2023-02-15T17:01:08;33.73;;;16.97;;
29958;SDS011;16815;51.100;6.516;2023-02-15T17:03:35;38.13;;;19.20;;
29958;SDS011;16815;51.100;6.516;2023-02-15T17:06:02;38.00;;;19.10;;
29958;SDS011;16815;51.100;6.516;2023-02-15T17:08:32;33.50;;;19.40;;
29958;SDS011;16815;51.100;6.516;2023-02-15T17:13:28;32.10;;;19.50;;